createdAt,value
2023-01-26T00:01:22.676Z,1.13
2023-01-26T00:03:50.863Z,2.28
2023-01-26T00:06:19.903Z,1.50
2023-01-26T00:08:49.941Z,1.73
2023-01-26T00:11:20.013Z,1.48
2023-01-26T00:13:53.528Z,1.20
2023-01-26T00:16:21.219Z,2.67
2023-01-26T00:18:48.546Z,2.10
2023-01-26T00:21:18.508Z,2.13
2023-01-26T00:23:46.344Z,2.08
2023-01-26T00:26:19.456Z,2.05
2023-01-26T00:28:47.206Z,2.95
2023-01-26T00:31:17.329Z,2.88
2023-01-26T00:33:44.856Z,1.67
2023-01-26T00:36:12.630Z,1.20
2023-01-26T00:38:41.390Z,3.90
2023-01-26T00:41:09.961Z,2.33
2023-01-26T00:43:37.153Z,2.28
2023-01-26T00:46:04.488Z,1.60
2023-01-26T00:48:31.669Z,2.10
2023-01-26T00:50:58.928Z,1.92
2023-01-26T00:53:26.152Z,3.88
2023-01-26T00:55:56.118Z,3.00
2023-01-26T00:58:23.323Z,2.47
2023-01-26T01:00:50.559Z,2.33
2023-01-26T01:03:17.796Z,2.20
2023-01-26T01:05:47.729Z,1.67
2023-01-26T01:08:14.930Z,2.03
2023-01-26T01:10:42.131Z,1.92
2023-01-26T01:13:09.309Z,2.05
2023-01-26T01:15:39.030Z,2.88
2023-01-26T01:18:06.318Z,2.00
2023-01-26T01:20:33.549Z,2.92
2023-01-26T01:23:00.690Z,2.85
2023-01-26T01:25:28.049Z,3.92
2023-01-26T01:27:55.425Z,3.13
2023-01-26T01:30:22.611Z,2.95
2023-01-26T01:32:51.720Z,2.45
2023-01-26T01:35:18.958Z,2.60
2023-01-26T01:37:46.155Z,2.25
2023-01-26T01:40:14.035Z,4.05
2023-01-26T01:42:47.823Z,2.70
2023-01-26T01:45:42.937Z,3.05
2023-01-26T01:50:41.567Z,3.15
2023-01-26T01:53:13.068Z,4.15
2023-01-26T01:55:41.707Z,3.42
2023-01-26T01:58:09.324Z,3.80
2023-01-26T02:00:36.586Z,4.05
2023-01-26T02:03:12.771Z,4.43
2023-01-26T02:05:57.948Z,4.40
2023-01-26T02:08:32.029Z,4.68
2023-01-26T02:11:05.214Z,5.07
2023-01-26T02:13:33.638Z,4.28
2023-01-26T02:16:01.446Z,5.00
2023-01-26T02:18:29.330Z,2.92
2023-01-26T02:21:18.294Z,3.50
2023-01-26T02:24:08.625Z,2.95
2023-01-26T02:26:37.674Z,3.55
2023-01-26T02:29:09.804Z,4.32
2023-01-26T02:31:42.120Z,3.63
2023-01-26T02:34:09.425Z,3.40
2023-01-26T02:36:37.183Z,2.50
2023-01-26T02:39:20.519Z,2.92
2023-01-26T02:42:08.288Z,4.45
2023-01-26T02:44:36.298Z,3.10
2023-01-26T02:47:15.392Z,4.28
2023-01-26T02:49:50.484Z,2.95
2023-01-26T02:52:22.953Z,3.33
2023-01-26T02:55:15.249Z,4.10
2023-01-26T02:57:42.866Z,3.75
2023-01-26T03:00:14.160Z,3.58
2023-01-26T03:02:42.245Z,2.97
2023-01-26T03:05:09.603Z,4.05
2023-01-26T03:07:36.946Z,2.92
2023-01-26T03:10:05.735Z,3.35
2023-01-26T03:12:34.192Z,2.53
2023-01-26T03:15:20.333Z,2.90
2023-01-26T03:17:47.938Z,3.25
2023-01-26T03:20:34.074Z,2.65
2023-01-26T03:23:19.679Z,3.00
2023-01-26T03:26:05.406Z,2.78
2023-01-26T03:28:34.606Z,2.40
2023-01-26T03:31:07.253Z,3.42
2023-01-26T03:33:34.577Z,3.03
2023-01-26T03:36:03.090Z,4.00
2023-01-26T03:38:30.675Z,3.03
2023-01-26T03:41:17.244Z,3.67
2023-01-26T03:44:03.051Z,3.58
2023-01-26T03:46:48.814Z,3.30
2023-01-26T03:49:34.766Z,4.75
2023-01-26T03:52:20.496Z,3.05
2023-01-26T03:55:07.321Z,3.75
2023-01-26T03:57:34.541Z,2.92
2023-01-26T04:00:01.725Z,3.38
2023-01-26T04:02:48.023Z,2.20
2023-01-26T04:05:33.647Z,3.38
2023-01-26T04:08:27.136Z,3.40
2023-01-26T04:10:59.940Z,2.95
2023-01-26T04:13:45.630Z,2.60
2023-01-26T04:16:43.315Z,2.60
2023-01-26T04:19:29.118Z,2.83
2023-01-26T04:21:58.872Z,2.15
2023-01-26T04:24:26.301Z,2.00
2023-01-26T04:26:56.561Z,2.25
2023-01-26T04:29:31.585Z,2.28
2023-01-26T04:31:58.888Z,2.15
2023-01-26T04:34:27.225Z,2.00
2023-01-26T04:36:54.587Z,2.70
2023-01-26T04:39:25.002Z,2.17
2023-01-26T04:41:56.205Z,1.25
2023-01-26T04:44:23.803Z,3.83
2023-01-26T04:46:50.997Z,2.28
2023-01-26T04:49:18.664Z,1.65
2023-01-26T04:51:46.154Z,2.53
2023-01-26T04:54:13.769Z,2.55
2023-01-26T04:56:44.113Z,2.28
2023-01-26T04:59:13.527Z,2.33
2023-01-26T05:01:42.181Z,3.38
2023-01-26T05:04:11.655Z,2.35
2023-01-26T05:06:42.252Z,3.42
2023-01-26T05:09:10.484Z,2.13
2023-01-26T05:11:39.111Z,1.70
2023-01-26T05:14:17.797Z,2.60
2023-01-26T05:17:01.934Z,2.42
2023-01-26T05:20:05.063Z,3.63
2023-01-26T05:22:40.357Z,3.33
2023-01-26T05:25:39.662Z,3.88
2023-01-26T05:28:12.104Z,2.45
2023-01-26T05:30:40.287Z,2.88
2023-01-26T05:33:08.819Z,3.08
2023-01-26T05:35:36.725Z,5.15
2023-01-26T05:38:06.173Z,4.32
2023-01-26T05:40:34.437Z,4.07
2023-01-26T05:43:01.773Z,3.30
2023-01-26T05:46:04.186Z,3.25
2023-01-26T05:48:31.636Z,3.03
2023-01-26T05:50:58.941Z,3.97
2023-01-26T05:53:26.712Z,3.38
2023-01-26T05:55:54.373Z,4.38
2023-01-26T05:58:24.244Z,3.13
2023-01-26T06:00:51.787Z,2.72
2023-01-26T06:03:25.099Z,2.30
2023-01-26T06:05:55.878Z,1.73
2023-01-26T06:08:49.113Z,1.63
2023-01-26T06:11:34.482Z,2.65
2023-01-26T06:14:27.843Z,2.10
2023-01-26T06:16:56.902Z,3.47
2023-01-26T06:19:24.927Z,2.55
2023-01-26T06:21:57.172Z,3.40
2023-01-26T06:24:24.562Z,2.15
2023-01-26T06:26:52.875Z,3.25
2023-01-26T06:29:20.306Z,4.32
2023-01-26T06:31:47.579Z,3.30
2023-01-26T06:34:14.915Z,3.00
2023-01-26T06:36:43.050Z,4.07
2023-01-26T06:39:17.310Z,3.70
2023-01-26T06:41:44.708Z,3.47
2023-01-26T06:44:12.632Z,3.17
2023-01-26T06:46:40.341Z,2.28
2023-01-26T06:49:07.709Z,2.10
2023-01-26T06:51:43.337Z,1.85
2023-01-26T06:54:12.166Z,2.38
2023-01-26T06:56:59.706Z,3.20
2023-01-26T06:59:38.660Z,1.48
2023-01-26T07:02:32.055Z,2.72
2023-01-26T07:04:59.368Z,4.28
2023-01-26T07:07:26.612Z,3.40
2023-01-26T07:09:53.906Z,2.85
2023-01-26T07:12:21.246Z,2.58
2023-01-26T07:14:48.469Z,2.13
2023-01-26T07:17:15.625Z,2.60
2023-01-26T07:19:42.841Z,2.75
2023-01-26T07:22:10.046Z,2.53
2023-01-26T07:24:37.463Z,2.00
2023-01-26T07:27:04.654Z,3.08
2023-01-26T07:29:31.885Z,2.70
2023-01-26T07:31:59.188Z,3.38
2023-01-26T07:34:26.471Z,3.42
2023-01-26T07:36:53.702Z,2.40
2023-01-26T07:39:20.906Z,4.15
2023-01-26T07:41:49.592Z,3.83
2023-01-26T07:44:40.095Z,2.90
2023-01-26T07:47:07.335Z,2.47
2023-01-26T07:49:34.537Z,2.40
2023-01-26T07:52:03.219Z,3.08
2023-01-26T07:54:31.865Z,2.80
2023-01-26T07:56:59.897Z,2.90
2023-01-26T07:59:27.135Z,3.13
2023-01-26T08:01:54.432Z,2.58
2023-01-26T08:04:21.628Z,2.92
2023-01-26T08:06:51.844Z,2.05
2023-01-26T08:09:19.535Z,1.55
2023-01-26T08:11:46.805Z,1.55
2023-01-26T08:14:14.209Z,2.65
2023-01-26T08:16:41.545Z,2.15
2023-01-26T08:19:08.931Z,1.23
2023-01-26T08:21:36.824Z,0.85
2023-01-26T08:24:04.773Z,1.15
2023-01-26T08:26:32.804Z,1.15
2023-01-26T08:29:00.454Z,1.10
2023-01-26T08:31:28.478Z,1.35
2023-01-26T08:33:56.419Z,1.52
2023-01-26T08:36:23.661Z,1.10
2023-01-26T08:38:51.894Z,0.80
2023-01-26T08:41:19.487Z,2.03
2023-01-26T08:43:46.963Z,2.17
2023-01-26T08:46:14.284Z,2.53
2023-01-26T08:48:41.475Z,3.00
2023-01-26T08:51:09.164Z,3.80
2023-01-26T08:53:37.738Z,2.15
2023-01-26T08:56:07.110Z,2.70
2023-01-26T08:58:35.395Z,1.80
2023-01-26T09:01:06.966Z,2.17
2023-01-26T09:03:34.617Z,2.70
2023-01-26T09:06:02.677Z,3.60
2023-01-26T09:08:29.921Z,3.13
2023-01-26T09:10:57.289Z,3.05
2023-01-26T09:13:24.562Z,2.15
2023-01-26T09:15:52.262Z,2.40
2023-01-26T09:18:19.711Z,3.33
2023-01-26T09:20:46.947Z,3.65
2023-01-26T09:23:16.363Z,4.10
2023-01-26T09:25:43.975Z,4.60
2023-01-26T09:28:11.257Z,3.83
2023-01-26T09:30:38.560Z,4.65
2023-01-26T09:33:07.006Z,5.15
2023-01-26T09:35:34.298Z,5.93
2023-01-26T09:38:01.617Z,4.85
2023-01-26T09:40:53.764Z,5.30
2023-01-26T09:43:43.171Z,5.22
2023-01-26T09:46:10.450Z,5.75
2023-01-26T09:48:47.258Z,5.55
2023-01-26T09:51:27.905Z,7.07
2023-01-26T09:53:59.476Z,7.35
2023-01-26T09:56:30.277Z,6.88
2023-01-26T09:59:17.640Z,6.18
2023-01-26T10:01:54.228Z,6.30
2023-01-26T10:04:37.685Z,6.47
2023-01-26T10:07:15.664Z,6.78
2023-01-26T10:09:49.991Z,6.28
2023-01-26T10:12:20.209Z,4.80
2023-01-26T10:14:57.493Z,5.88
2023-01-26T10:17:32.054Z,5.78
2023-01-26T10:20:21.724Z,4.55
2023-01-26T10:23:01.744Z,6.35
2023-01-26T10:25:36.717Z,5.85
2023-01-26T10:28:20.705Z,4.80
2023-01-26T10:30:49.289Z,5.87
2023-01-26T10:33:35.983Z,4.85
2023-01-26T10:36:06.189Z,3.53
2023-01-26T10:38:33.341Z,5.07
2023-01-26T10:41:18.310Z,4.82
2023-01-26T10:44:02.630Z,5.40
2023-01-26T10:46:38.031Z,9.40
2023-01-26T10:49:29.226Z,7.25
2023-01-26T10:52:09.225Z,7.43
2023-01-26T10:54:38.210Z,7.38
2023-01-26T10:57:22.493Z,8.20
2023-01-26T11:00:08.662Z,6.97
2023-01-26T11:02:36.942Z,8.73
2023-01-26T11:05:07.213Z,9.40
2023-01-26T11:07:39.905Z,7.30
2023-01-26T11:10:36.528Z,8.45
2023-01-26T11:13:22.419Z,6.43
2023-01-26T11:16:00.801Z,7.97
2023-01-26T11:18:52.525Z,7.25
2023-01-26T11:21:34.986Z,6.40
2023-01-26T11:24:21.344Z,5.25
2023-01-26T11:27:13.171Z,6.45
2023-01-26T11:29:58.902Z,6.40
2023-01-26T11:32:26.098Z,4.65
2023-01-26T11:35:10.148Z,4.95
2023-01-26T11:37:46.005Z,4.30
2023-01-26T11:40:38.022Z,3.75
2023-01-26T11:43:23.241Z,3.40
2023-01-26T11:46:05.452Z,6.05
2023-01-26T11:48:45.361Z,3.17
2023-01-26T11:51:18.403Z,2.60
2023-01-26T11:54:10.657Z,4.05
2023-01-26T11:57:04.772Z,3.85
2023-01-26T11:59:39.364Z,2.95
2023-01-26T12:02:28.008Z,4.55
2023-01-26T12:04:58.922Z,4.40
2023-01-26T12:07:55.408Z,6.32
2023-01-26T12:10:36.010Z,6.20
2023-01-26T12:13:16.569Z,5.85
2023-01-26T12:15:52.424Z,5.22
2023-01-26T12:18:42.206Z,5.38
2023-01-26T12:21:17.390Z,4.35
2023-01-26T12:24:03.350Z,5.50
2023-01-26T12:26:42.044Z,7.00
2023-01-26T12:29:39.965Z,6.65
2023-01-26T12:32:14.689Z,3.83
2023-01-26T12:34:42.048Z,2.88
2023-01-26T12:37:36.662Z,3.13
2023-01-26T12:40:25.629Z,5.50
2023-01-26T12:43:20.666Z,3.65
2023-01-26T12:45:50.621Z,2.47
2023-01-26T12:48:20.485Z,3.45
2023-01-26T12:50:58.028Z,3.15
2023-01-26T12:53:37.956Z,1.55
2023-01-26T12:56:56.393Z,2.10
2023-01-26T12:59:48.173Z,1.75
2023-01-26T13:02:16.053Z,2.40
2023-01-26T13:04:49.023Z,2.25
2023-01-26T13:07:33.397Z,2.47
2023-01-26T13:10:17.769Z,1.60
2023-01-26T13:12:49.358Z,1.95
2023-01-26T13:15:19.658Z,1.35
2023-01-26T13:17:53.107Z,1.27
2023-01-26T13:20:26.142Z,1.35
2023-01-26T13:22:54.339Z,2.03
2023-01-26T13:25:33.513Z,2.47
2023-01-26T13:28:03.265Z,1.98
2023-01-26T13:30:42.195Z,1.30
2023-01-26T13:33:18.102Z,1.42
2023-01-26T13:35:46.445Z,1.80
2023-01-26T13:38:51.085Z,1.65
2023-01-26T13:41:21.202Z,2.28
2023-01-26T13:43:59.741Z,2.13
2023-01-26T13:46:43.232Z,1.40
2023-01-26T13:49:42.259Z,1.90
2023-01-26T13:52:42.246Z,2.05
2023-01-26T13:55:22.474Z,1.45
2023-01-26T13:57:49.730Z,1.73
2023-01-26T14:00:17.662Z,1.02
2023-01-26T14:02:49.792Z,1.10
2023-01-26T14:05:23.397Z,1.45
2023-01-26T14:07:50.600Z,1.10
2023-01-26T14:10:22.445Z,1.15
2023-01-26T14:12:57.434Z,2.17
2023-01-26T14:15:33.287Z,2.17
2023-01-26T14:18:03.133Z,1.02
2023-01-26T14:20:32.012Z,2.30
2023-01-26T14:23:19.362Z,2.15
2023-01-26T14:26:02.220Z,2.65
2023-01-26T14:28:35.246Z,3.58
2023-01-26T14:31:23.156Z,2.22
2023-01-26T14:33:55.155Z,2.90
2023-01-26T14:36:23.081Z,1.88
2023-01-26T14:38:51.966Z,1.63
2023-01-26T14:41:26.117Z,2.20
2023-01-26T14:43:57.923Z,1.38
2023-01-26T14:46:28.829Z,1.45
2023-01-26T14:49:08.407Z,1.55
2023-01-26T14:51:37.339Z,1.25
2023-01-26T14:54:21.193Z,0.73
2023-01-26T14:56:49.019Z,1.70
2023-01-26T14:59:26.002Z,1.08
2023-01-26T15:02:20.006Z,0.68
2023-01-26T15:04:53.958Z,2.53
2023-01-26T15:07:56.767Z,0.88
2023-01-26T15:10:35.532Z,0.98
2023-01-26T15:13:11.559Z,1.35
2023-01-26T15:15:41.706Z,0.98
2023-01-26T15:18:14.983Z,1.17
2023-01-26T15:20:52.608Z,0.85
2023-01-26T15:23:24.806Z,1.08
2023-01-26T15:25:52.553Z,1.58
2023-01-26T15:28:25.815Z,1.17
2023-01-26T15:30:55.900Z,1.13
2023-01-26T15:33:44.865Z,0.88
2023-01-26T15:36:48.150Z,1.08
2023-01-26T15:39:20.322Z,1.73
2023-01-26T15:42:05.817Z,1.10
2023-01-26T15:44:33.025Z,1.10
2023-01-26T15:47:00.274Z,1.67
2023-01-26T15:49:27.545Z,1.63
2023-01-26T15:51:54.760Z,1.50
2023-01-26T15:54:21.916Z,1.65
2023-01-26T15:56:49.082Z,1.98
2023-01-26T15:59:16.380Z,1.88
2023-01-26T16:01:43.598Z,1.88
2023-01-26T16:04:14.171Z,1.27
2023-01-26T16:06:41.685Z,1.70
2023-01-26T16:09:08.977Z,1.23
2023-01-26T16:11:41.717Z,1.15
2023-01-26T16:14:13.261Z,1.17
2023-01-26T16:16:40.709Z,1.85
2023-01-26T16:19:08.922Z,1.63
2023-01-26T16:21:41.054Z,1.45
2023-01-26T16:24:10.349Z,3.15
2023-01-26T16:26:37.654Z,1.98
2023-01-26T16:29:04.877Z,2.55
2023-01-26T16:31:34.697Z,2.88
2023-01-26T16:34:02.444Z,1.17
2023-01-26T16:36:30.220Z,1.27
2023-01-26T16:38:57.516Z,1.08
2023-01-26T16:41:27.374Z,1.52
2023-01-26T16:43:57.490Z,1.27
2023-01-26T16:46:25.753Z,1.10
2023-01-26T16:48:53.110Z,1.10
2023-01-26T16:51:36.604Z,0.93
2023-01-26T16:54:03.873Z,0.82
2023-01-26T16:56:32.644Z,1.42
2023-01-26T16:58:59.925Z,1.17
2023-01-26T17:01:33.512Z,2.03
2023-01-26T17:04:02.337Z,2.10
2023-01-26T17:06:30.359Z,2.10
2023-01-26T17:08:57.897Z,2.08
2023-01-26T17:11:28.450Z,3.03
2023-01-26T17:13:56.800Z,1.67
2023-01-26T17:16:26.226Z,1.33
2023-01-26T17:18:53.851Z,1.20
2023-01-26T17:21:21.904Z,1.10
2023-01-26T17:23:52.089Z,1.00
2023-01-26T17:26:20.471Z,0.88
2023-01-26T17:28:49.385Z,2.60
2023-01-26T17:31:18.966Z,1.73
2023-01-26T17:33:48.328Z,2.55
2023-01-26T17:36:16.974Z,3.40
2023-01-26T17:38:45.031Z,5.35
2023-01-26T17:41:12.593Z,10.50
2023-01-26T17:43:40.019Z,3.58
2023-01-26T17:46:12.504Z,6.50
2023-01-26T17:48:40.865Z,4.70
2023-01-26T17:51:10.793Z,1.85
2023-01-26T17:53:42.090Z,7.45
2023-01-26T17:56:11.960Z,5.72
2023-01-26T17:58:40.121Z,6.82
2023-01-26T18:01:09.277Z,2.33
2023-01-26T18:03:40.916Z,3.53
2023-01-26T18:06:08.387Z,2.17
2023-01-26T18:08:37.466Z,1.77
2023-01-26T18:11:06.450Z,2.47
2023-01-26T18:13:34.196Z,2.80
2023-01-26T18:16:01.496Z,2.60
2023-01-26T18:18:30.434Z,1.80
2023-01-26T18:20:57.653Z,2.42
2023-01-26T18:23:25.370Z,5.20
2023-01-26T18:25:52.806Z,5.18
2023-01-26T18:28:19.993Z,3.00
2023-01-26T18:30:48.574Z,2.65
2023-01-26T18:33:15.872Z,1.77
2023-01-26T18:35:43.049Z,1.58
2023-01-26T18:38:10.265Z,1.90
2023-01-26T18:40:40.091Z,1.60
2023-01-26T18:43:08.497Z,1.60
2023-01-26T18:45:35.893Z,1.25
2023-01-26T18:48:03.149Z,2.15
2023-01-26T18:50:30.345Z,0.80
2023-01-26T18:52:58.711Z,1.00
2023-01-26T18:55:26.291Z,1.58
2023-01-26T18:57:55.301Z,1.67
2023-01-26T19:00:22.746Z,1.58
2023-01-26T19:02:49.921Z,1.38
2023-01-26T19:05:17.197Z,1.70
2023-01-26T19:07:44.433Z,1.95
2023-01-26T19:10:11.714Z,1.70
2023-01-26T19:12:38.885Z,1.38
2023-01-26T19:15:06.870Z,1.58
2023-01-26T19:17:34.080Z,1.10
2023-01-26T19:20:01.381Z,1.02
2023-01-26T19:22:28.603Z,1.10
2023-01-26T19:24:55.781Z,0.77
2023-01-26T19:27:22.993Z,0.90
2023-01-26T19:29:51.708Z,1.00
2023-01-26T19:32:18.901Z,0.77
2023-01-26T19:34:46.079Z,0.60
2023-01-26T19:37:13.281Z,1.02
2023-01-26T19:39:40.525Z,0.70
2023-01-26T19:42:07.809Z,1.00
2023-01-26T19:44:34.962Z,2.25
2023-01-26T19:47:02.168Z,0.80
2023-01-26T19:49:29.384Z,0.95
2023-01-26T19:51:56.696Z,0.70
2023-01-26T19:54:23.911Z,0.60
2023-01-26T19:56:51.671Z,0.88
2023-01-26T19:59:18.987Z,1.38
2023-01-26T20:01:46.429Z,0.63
2023-01-26T20:04:14.598Z,0.70
2023-01-26T20:06:41.974Z,1.60
2023-01-26T20:09:09.579Z,0.80
2023-01-26T20:11:36.920Z,0.65
2023-01-26T20:14:08.702Z,0.70
2023-01-26T20:16:36.249Z,0.77
2023-01-26T20:19:04.144Z,1.10
2023-01-26T20:21:32.284Z,0.98
2023-01-26T20:24:05.289Z,0.85
2023-01-26T20:26:34.427Z,0.70
2023-01-26T20:29:01.692Z,1.15
2023-01-26T20:31:29.137Z,0.68
2023-01-26T20:33:58.464Z,1.00
2023-01-26T20:36:28.641Z,0.63
2023-01-26T20:38:56.462Z,0.90
2023-01-26T20:41:29.631Z,0.60
2023-01-26T20:44:01.623Z,1.17
2023-01-26T20:46:37.837Z,0.73
2023-01-26T20:49:06.456Z,1.02
2023-01-26T20:51:36.043Z,0.80
2023-01-26T20:54:09.120Z,1.40
2023-01-26T20:56:36.774Z,1.10
2023-01-26T20:59:05.611Z,0.98
2023-01-26T21:01:34.373Z,0.77
2023-01-26T21:04:02.303Z,0.70
2023-01-26T21:06:30.227Z,0.60
2023-01-26T21:08:59.814Z,0.60
2023-01-26T21:11:30.364Z,0.70
2023-01-26T21:14:00.604Z,1.10
2023-01-26T21:16:29.135Z,5.90
2023-01-26T21:18:56.377Z,1.13
2023-01-26T21:21:23.764Z,1.45
2023-01-26T21:23:51.794Z,2.13
2023-01-26T21:26:22.281Z,1.48
2023-01-26T21:28:54.861Z,1.67
2023-01-26T21:31:25.076Z,0.98
2023-01-26T21:33:52.948Z,1.30
2023-01-26T21:36:24.603Z,1.10
2023-01-26T21:38:53.422Z,1.23
2023-01-26T21:41:45.011Z,1.27
2023-01-26T21:44:21.110Z,1.17
2023-01-26T21:46:50.938Z,0.85
2023-01-26T21:49:19.102Z,0.70
2023-01-26T21:52:04.913Z,1.00
2023-01-26T21:54:32.439Z,1.63
2023-01-26T21:57:00.702Z,1.10
2023-01-26T21:59:29.006Z,1.70
2023-01-26T22:01:58.071Z,1.33
2023-01-26T22:04:30.406Z,2.25
2023-01-26T22:06:58.094Z,1.38
2023-01-26T22:09:25.560Z,0.85
2023-01-26T22:11:52.909Z,0.88
2023-01-26T22:14:22.684Z,1.38
2023-01-26T22:16:50.187Z,1.10
2023-01-26T22:19:18.224Z,0.98
2023-01-26T22:21:45.515Z,0.95
2023-01-26T22:24:14.492Z,1.50
2023-01-26T22:26:42.324Z,1.00
2023-01-26T22:29:11.940Z,0.70
2023-01-26T22:31:39.286Z,0.80
2023-01-26T22:34:07.073Z,1.15
2023-01-26T22:36:34.465Z,0.90
2023-01-26T22:39:01.766Z,1.20
2023-01-26T22:41:30.638Z,1.40
2023-01-26T22:43:59.540Z,1.00
2023-01-26T22:46:29.054Z,0.90
2023-01-26T22:48:58.185Z,1.77
2023-01-26T22:51:30.417Z,1.25
2023-01-26T22:53:59.038Z,1.00
2023-01-26T22:56:27.415Z,1.90
2023-01-26T22:58:59.437Z,1.90
2023-01-26T23:01:29.641Z,2.53
2023-01-26T23:03:57.847Z,1.90
2023-01-26T23:06:25.750Z,2.60
2023-01-26T23:08:53.222Z,1.70
2023-01-26T23:11:25.784Z,3.10
2023-01-26T23:13:54.547Z,1.95
2023-01-26T23:16:23.737Z,3.25
2023-01-26T23:18:57.070Z,2.15
2023-01-26T23:21:25.332Z,2.88
2023-01-26T23:23:52.737Z,2.90
2023-01-26T23:26:20.731Z,2.55
2023-01-26T23:28:48.438Z,2.47
2023-01-26T23:31:18.376Z,2.65
2023-01-26T23:33:46.400Z,2.58
2023-01-26T23:36:14.820Z,2.97
2023-01-26T23:38:42.229Z,3.22
2023-01-26T23:41:12.172Z,3.80
2023-01-26T23:43:39.538Z,3.63
2023-01-26T23:46:08.414Z,2.67
2023-01-26T23:48:36.498Z,3.05
2023-01-26T23:51:06.709Z,3.35
2023-01-26T23:53:34.331Z,5.03
2023-01-26T23:56:08.254Z,3.50
2023-01-26T23:58:37.379Z,4.03
